Time;durP1;ratioP1;P1;durP2;ratioP2;P2;SDS_P1;SDS_P2;PMS_P1;PMS_P2;Temp;Humidity;BMP_temperature;BMP_pressure;BME280_temperature;BME280_humidity;BME280_pressure;Samples;Min_cycle;Max_cycle;Signal;HPM_P1;HPM_P2
2022/01/11 00:01:05;;;;;;;52.75;29.80;;;;;;;-144.47;100.00;61586.06;5020132;28;20481;-74
2022/01/11 00:03:30;;;;;;;44.25;27.60;;;;;;;-144.47;100.00;61586.06;5017941;28;20037;-74
2022/01/11 00:06:01;;;;;;;48.72;28.25;;;;;;;-144.47;100.00;61586.06;5021074;28;20033;-74
2022/01/11 00:08:32;;;;;;;45.58;28.45;;;;;;;-144.47;100.00;61586.06;5017854;28;20022;-74
2022/01/11 00:11:04;;;;;;;53.70;27.90;;;;;;;-144.47;100.00;61586.06;5020998;28;20088;-75
2022/01/11 00:13:35;;;;;;;49.65;27.92;;;;;;;-144.47;100.00;61586.06;5018165;28;20030;-73
2022/01/11 00:16:01;;;;;;;43.88;26.13;;;;;;;-144.47;100.00;61586.06;5024666;28;20113;-74
2022/01/11 00:18:27;;;;;;;38.95;25.63;;;;;;;-144.47;100.00;61586.06;5017458;28;20112;-73
2022/01/11 00:20:54;;;;;;;48.05;28.48;;;;;;;-144.47;100.00;61586.06;5020747;28;20520;-75
2022/01/11 00:25:46;;;;;;;45.63;28.13;;;;;;;-144.47;100.00;61586.06;5020594;28;20477;-75
2022/01/11 00:28:15;;;;;;;49.63;28.90;;;;;;;-144.47;100.00;61586.06;5018731;28;20133;-75
2022/01/11 00:30:52;;;;;;;49.75;29.80;;;;;;;-144.47;100.00;61586.06;5003397;28;20033;-75
2022/01/11 00:33:24;;;;;;;46.05;28.38;;;;;;;-144.47;100.00;61586.06;5017369;28;20026;-75
2022/01/11 00:36:00;;;;;;;54.47;30.98;;;;;;;-144.47;100.00;61586.06;5003047;28;20365;-74
2022/01/11 00:38:28;;;;;;;52.75;31.58;;;;;;;-144.47;100.00;61586.06;5017261;28;20482;-74
2022/01/11 00:40:57;;;;;;;49.00;31.73;;;;;;;-144.47;100.00;61586.06;5026202;28;20025;-74
2022/01/11 00:43:25;;;;;;;55.00;32.55;;;;;;;-144.47;100.00;61586.06;5002502;28;20037;-71
2022/01/11 00:45:52;;;;;;;55.03;33.25;;;;;;;-144.47;100.00;61586.06;5020604;28;20037;-74
2022/01/11 00:48:18;;;;;;;56.30;32.33;;;;;;;-144.47;100.00;61586.06;5022310;28;20049;-76
2022/01/11 00:50:44;;;;;;;53.33;31.83;;;;;;;-144.47;100.00;61586.06;5020900;28;20033;-74
2022/01/11 00:53:10;;;;;;;55.03;32.60;;;;;;;-144.47;100.00;61586.06;5004657;28;20402;-74
2022/01/11 00:55:38;;;;;;;53.85;32.33;;;;;;;-144.47;100.00;61586.06;5022164;28;20040;-75
2022/01/11 00:58:05;;;;;;;55.90;31.73;;;;;;;-144.47;100.00;61586.06;5021559;28;20029;-74
2022/01/11 01:00:37;;;;;;;55.67;32.53;;;;;;;-144.47;100.00;61586.06;5004385;28;20029;-74
2022/01/11 01:03:04;;;;;;;50.95;32.45;;;;;;;-144.47;100.00;61586.06;5026060;23;20120;-76
2022/01/11 01:05:29;;;;;;;57.80;32.40;;;;;;;-144.47;100.00;61586.06;5040678;28;20040;-76
2022/01/11 01:07:55;;;;;;;54.33;32.75;;;;;;;-144.47;100.00;61586.06;5041855;28;20098;-76
2022/01/11 01:10:35;;;;;;;56.45;31.73;;;;;;;-144.47;100.00;61586.06;5038240;28;20116;-76
2022/01/11 01:13:06;;;;;;;52.38;32.15;;;;;;;-144.47;100.00;61586.06;5036995;28;20048;-75
2022/01/11 01:15:35;;;;;;;51.45;31.60;;;;;;;-144.47;100.00;61586.06;5043290;28;20034;-74
2022/01/11 01:18:06;;;;;;;53.60;31.65;;;;;;;-144.47;100.00;61586.06;5030668;28;20033;-75
2022/01/11 01:20:33;;;;;;;51.25;30.65;;;;;;;-144.47;100.00;61586.06;5030651;28;20042;-75
2022/01/11 01:22:59;;;;;;;49.65;30.48;;;;;;;-144.47;100.00;61586.06;5040065;28;20049;-76
2022/01/11 01:25:24;;;;;;;52.05;32.30;;;;;;;-144.47;100.00;61586.06;5042624;28;20087;-75
2022/01/11 01:27:52;;;;;;;52.47;31.67;;;;;;;-144.47;100.00;61586.06;5037931;28;20037;-75
2022/01/11 01:30:18;;;;;;;50.90;30.65;;;;;;;-144.47;100.00;61586.06;5042188;28;20033;-75
2022/01/11 01:32:45;;;;;;;46.10;28.27;;;;;;;-144.47;100.00;61586.06;5038779;28;20123;-75
2022/01/11 01:35:12;;;;;;;53.28;30.92;;;;;;;-144.47;100.00;61586.06;5041381;28;20033;-75
2022/01/11 01:37:38;;;;;;;50.67;30.33;;;;;;;-144.47;100.00;61586.06;5039506;28;20136;-75
2022/01/11 01:40:05;;;;;;;53.33;32.58;;;;;;;-144.47;100.00;61586.06;5029556;28;20033;-76
2022/01/11 01:42:31;;;;;;;49.55;28.88;;;;;;;-144.47;100.00;61586.06;5039959;28;20473;-76
2022/01/11 01:45:01;;;;;;;52.33;30.83;;;;;;;-144.47;100.00;61586.06;5042622;28;20040;-77
2022/01/11 01:47:27;;;;;;;45.47;28.07;;;;;;;-144.47;100.00;61586.06;5029647;28;20060;-76
2022/01/11 01:49:53;;;;;;;44.85;26.95;;;;;;;-144.47;100.00;61586.06;5037620;28;20870;-76
2022/01/11 01:52:19;;;;;;;46.30;28.00;;;;;;;-144.47;100.00;61586.06;5028054;28;20057;-78
2022/01/11 01:54:45;;;;;;;43.60;26.48;;;;;;;-144.47;100.00;61586.06;5035903;28;20063;-75
2022/01/11 01:57:10;;;;;;;41.70;24.50;;;;;;;-144.47;100.00;61586.06;5030671;28;20045;-76
2022/01/11 01:59:36;;;;;;;37.90;24.05;;;;;;;-144.47;100.00;61586.06;5039533;28;20049;-75
2022/01/11 02:02:03;;;;;;;35.08;22.48;;;;;;;-144.47;100.00;61586.06;5040941;28;20029;-74
2022/01/11 02:04:29;;;;;;;38.25;23.25;;;;;;;-144.47;100.00;61586.06;5039720;28;20033;-76
2022/01/11 02:06:54;;;;;;;31.73;21.42;;;;;;;-144.47;100.00;61586.06;5030030;28;20460;-76
2022/01/11 02:09:20;;;;;;;33.05;22.08;;;;;;;-144.47;100.00;61586.06;5040855;28;20484;-75
2022/01/11 02:11:47;;;;;;;37.83;22.73;;;;;;;-144.47;100.00;61586.06;5039642;28;20043;-76
2022/01/11 02:14:13;;;;;;;31.42;21.63;;;;;;;-144.47;100.00;61586.06;5040253;28;20513;-76
2022/01/11 02:16:39;;;;;;;34.08;22.15;;;;;;;-144.47;100.00;61586.06;5023049;28;20120;-76
2022/01/11 02:19:05;;;;;;;36.35;23.25;;;;;;;-144.47;100.00;61586.06;5029491;28;20044;-76
2022/01/11 02:21:31;;;;;;;33.45;22.55;;;;;;;-144.47;100.00;61586.06;5038517;28;20045;-76
2022/01/11 02:23:59;;;;;;;38.00;24.15;;;;;;;-144.47;100.00;61586.06;5041050;28;20040;-74
2022/01/11 02:26:28;;;;;;;41.60;23.55;;;;;;;-144.47;100.00;61586.06;5038141;28;20037;-75
2022/01/11 02:28:54;;;;;;;37.10;22.95;;;;;;;-144.47;100.00;61586.06;5042514;28;20048;-76
2022/01/11 02:31:21;;;;;;;33.58;23.55;;;;;;;-144.47;100.00;61586.06;5017664;28;20450;-77
2022/01/11 02:33:56;;;;;;;33.78;20.65;;;;;;;-144.47;100.00;61586.06;5039944;28;20045;-74
2022/01/11 02:36:34;;;;;;;30.58;20.98;;;;;;;-144.47;100.00;61586.06;5039939;28;20025;-76
2022/01/11 02:39:28;;;;;;;33.20;22.00;;;;;;;-144.47;100.00;61586.06;5036077;28;20462;-76
2022/01/11 02:42:02;;;;;;;37.08;23.45;;;;;;;-144.47;100.00;61586.06;5038049;28;20469;-76
2022/01/11 02:44:35;;;;;;;33.40;21.15;;;;;;;-144.47;100.00;61586.06;5037857;28;20132;-76
2022/01/11 02:47:01;;;;;;;35.38;23.10;;;;;;;-144.47;100.00;61586.06;5028357;28;20139;-75
2022/01/11 02:49:31;;;;;;;37.63;23.70;;;;;;;-144.47;100.00;61586.06;5027495;28;20478;-75
2022/01/11 02:52:06;;;;;;;40.63;23.48;;;;;;;-144.47;100.00;61586.06;5028200;28;20084;-75
2022/01/11 02:54:32;;;;;;;40.50;23.23;;;;;;;-144.47;100.00;61586.06;5038185;28;20414;-74
2022/01/11 02:57:19;;;;;;;40.95;24.95;;;;;;;-144.47;100.00;61586.06;5037178;28;20479;-75
2022/01/11 02:59:45;;;;;;;39.15;22.75;;;;;;;-144.47;100.00;61586.06;5028091;28;20136;-74
2022/01/11 03:02:12;;;;;;;40.47;24.17;;;;;;;-144.47;100.00;61586.06;5038435;28;20103;-75
2022/01/11 03:04:38;;;;;;;38.35;24.80;;;;;;;-144.47;100.00;61586.06;5037369;28;20564;-75
2022/01/11 03:07:04;;;;;;;38.35;23.85;;;;;;;-144.47;100.00;61586.06;5029872;28;20034;-77
2022/01/11 03:09:48;;;;;;;40.50;25.30;;;;;;;-144.47;100.00;61586.06;5037251;28;20596;-74
2022/01/11 03:12:15;;;;;;;39.92;24.13;;;;;;;-144.47;100.00;61586.06;5032604;28;20091;-75
2022/01/11 03:14:41;;;;;;;38.90;23.63;;;;;;;-144.47;100.00;61586.06;5041247;28;20426;-76
2022/01/11 03:17:06;;;;;;;40.85;24.25;;;;;;;-144.47;100.00;61586.06;5039226;28;20123;-75
2022/01/11 03:19:34;;;;;;;39.03;22.90;;;;;;;-144.47;100.00;61586.06;5027749;28;20045;-75
2022/01/11 03:22:00;;;;;;;39.17;22.58;;;;;;;-144.47;100.00;61586.06;5028517;28;20094;-76
2022/01/11 03:24:26;;;;;;;34.63;22.48;;;;;;;-144.47;100.00;61586.06;5029702;28;20037;-75
2022/01/11 03:26:52;;;;;;;37.40;21.25;;;;;;;-144.47;100.00;61586.06;5028576;28;20029;-76
2022/01/11 03:29:18;;;;;;;34.20;21.60;;;;;;;-144.47;100.00;61586.06;5029381;28;20072;-76
2022/01/11 03:31:43;;;;;;;30.48;20.10;;;;;;;-144.47;100.00;61586.06;5039078;28;20034;-76
2022/01/11 03:34:10;;;;;;;33.90;20.92;;;;;;;-144.47;100.00;61586.06;5038332;28;20038;-76
2022/01/11 03:36:36;;;;;;;31.38;19.83;;;;;;;-144.47;100.00;61586.06;5026246;28;20032;-76
2022/01/11 03:39:01;;;;;;;33.65;20.67;;;;;;;-144.47;100.00;61586.06;5030811;28;20029;-76
2022/01/11 03:41:28;;;;;;;32.10;20.15;;;;;;;-144.47;100.00;61586.06;5028136;28;20026;-75
2022/01/11 03:43:53;;;;;;;34.65;21.30;;;;;;;-144.47;100.00;61586.06;5028155;28;20386;-75
2022/01/11 03:46:21;;;;;;;31.83;20.20;;;;;;;-144.47;100.00;61586.06;5036195;28;20439;-75
2022/01/11 03:48:47;;;;;;;28.38;19.13;;;;;;;-144.47;100.00;61586.06;5039206;28;20053;-74
2022/01/11 03:51:13;;;;;;;28.92;19.10;;;;;;;-144.47;100.00;61586.06;5036775;28;20396;-75
2022/01/11 03:54:07;;;;;;;27.33;18.98;;;;;;;-144.47;100.00;61586.06;5035459;28;20138;-75
2022/01/11 03:56:36;;;;;;;27.85;18.08;;;;;;;-144.47;100.00;61586.06;5036960;28;20125;-75
2022/01/11 03:59:08;;;;;;;29.13;17.98;;;;;;;-144.47;100.00;61586.06;5036946;28;20048;-74
2022/01/11 04:01:36;;;;;;;33.83;20.33;;;;;;;-144.47;100.00;61586.06;5037218;28;20119;-75
2022/01/11 04:04:02;;;;;;;30.17;19.08;;;;;;;-144.47;100.00;61586.06;5033166;28;20041;-74
2022/01/11 04:06:28;;;;;;;29.60;18.35;;;;;;;-144.47;100.00;61586.06;5005369;28;20033;-75
2022/01/11 04:08:54;;;;;;;28.95;18.40;;;;;;;-144.47;100.00;61586.06;5010605;28;20120;-75
2022/01/11 04:11:20;;;;;;;28.60;19.42;;;;;;;-144.47;100.00;61586.06;5021961;28;20140;-74
2022/01/11 04:13:47;;;;;;;28.08;18.92;;;;;;;-144.47;100.00;61586.06;5019282;28;20037;-76
2022/01/11 04:16:14;;;;;;;32.65;17.77;;;;;;;-144.47;100.00;61586.06;5011636;28;20045;-76
2022/01/11 04:18:39;;;;;;;28.88;19.10;;;;;;;-144.47;100.00;61586.06;5042974;28;20057;-75
2022/01/11 04:21:05;;;;;;;30.50;19.13;;;;;;;-144.47;100.00;61586.06;5025481;28;20102;-75
2022/01/11 04:23:32;;;;;;;29.67;19.55;;;;;;;-144.47;100.00;61586.06;5014851;28;20103;-76
2022/01/11 04:25:59;;;;;;;32.20;19.38;;;;;;;-144.47;100.00;61586.06;5041270;28;20053;-76
2022/01/11 04:28:27;;;;;;;32.17;19.63;;;;;;;-144.47;100.00;61586.06;5026117;28;20036;-76
2022/01/11 04:30:58;;;;;;;27.35;18.75;;;;;;;-144.47;100.00;61586.06;5022755;28;20040;-75
2022/01/11 04:33:31;;;;;;;33.90;19.70;;;;;;;-144.47;100.00;61586.06;5026039;28;20063;-76
2022/01/11 04:35:58;;;;;;;31.75;18.65;;;;;;;-144.47;100.00;61586.06;5023313;28;20442;-76
2022/01/11 04:38:27;;;;;;;32.17;19.65;;;;;;;-144.47;100.00;61586.06;5026364;28;20028;-76
2022/01/11 04:40:53;;;;;;;28.52;18.67;;;;;;;-144.47;100.00;61586.06;5019362;28;20029;-75
2022/01/11 04:43:19;;;;;;;29.95;19.85;;;;;;;-144.47;100.00;61586.06;5014515;28;20042;-76
2022/01/11 04:45:49;;;;;;;37.78;20.52;;;;;;;-144.47;100.00;61586.06;5025750;28;20028;-77
2022/01/11 04:48:16;;;;;;;31.92;19.63;;;;;;;-144.47;100.00;61586.06;5041084;28;20045;-76
2022/01/11 04:50:42;;;;;;;33.67;20.65;;;;;;;-144.47;100.00;61586.06;5014316;28;20629;-76
2022/01/11 04:53:11;;;;;;;32.83;20.20;;;;;;;-144.47;100.00;61586.06;5025332;28;20061;-76
2022/01/11 04:55:38;;;;;;;29.80;19.55;;;;;;;-144.47;100.00;61586.06;5026242;28;20056;-76
2022/01/11 04:58:03;;;;;;;30.33;20.33;;;;;;;-144.47;100.00;61586.06;5025431;28;20113;-75
2022/01/11 05:00:30;;;;;;;29.45;19.98;;;;;;;-144.47;100.00;61586.06;5014152;28;20036;-76
2022/01/11 05:02:58;;;;;;;32.22;19.35;;;;;;;-144.47;100.00;61586.06;5022394;28;20064;-75
2022/01/11 05:05:28;;;;;;;31.13;19.55;;;;;;;-144.47;100.00;61586.06;5042474;28;20052;-76
2022/01/11 05:07:54;;;;;;;30.75;19.92;;;;;;;-144.47;100.00;61586.06;5037822;28;20026;-75
2022/01/11 05:10:20;;;;;;;37.33;20.55;;;;;;;-144.47;100.00;61586.06;5031235;28;20120;-77
2022/01/11 05:12:46;;;;;;;31.45;19.35;;;;;;;-144.47;100.00;61586.06;5033485;28;20088;-76
2022/01/11 05:15:15;;;;;;;29.73;18.92;;;;;;;-144.47;100.00;61586.06;5033880;28;20057;-76
2022/01/11 05:17:43;;;;;;;30.02;19.90;;;;;;;-144.47;100.00;61586.06;5048516;28;20111;-76
2022/01/11 05:20:10;;;;;;;29.08;19.67;;;;;;;-144.47;100.00;61586.06;5043130;28;20099;-77
2022/01/11 05:22:36;;;;;;;29.30;20.63;;;;;;;-144.47;100.00;61586.06;5042361;28;20049;-76
2022/01/11 05:25:03;;;;;;;29.45;19.80;;;;;;;-144.47;100.00;61586.06;5029856;28;20047;-75
2022/01/11 05:27:30;;;;;;;31.30;20.42;;;;;;;-144.47;100.00;61586.06;5035172;28;20057;-75
2022/01/11 05:29:56;;;;;;;33.00;20.48;;;;;;;-144.47;100.00;61586.06;5038770;28;20044;-75
2022/01/11 05:32:22;;;;;;;30.98;20.50;;;;;;;-144.47;100.00;61586.06;5041799;28;20087;-75
2022/01/11 05:34:48;;;;;;;32.05;20.00;;;;;;;-144.47;100.00;61586.06;5038445;28;20029;-76
2022/01/11 05:37:14;;;;;;;33.95;20.60;;;;;;;-144.47;100.00;61586.06;5030280;28;20033;-76
2022/01/11 05:39:40;;;;;;;30.42;19.42;;;;;;;-144.47;100.00;61586.06;5030265;28;20029;-76
2022/01/11 05:42:06;;;;;;;31.80;19.40;;;;;;;-144.47;100.00;61586.06;5040282;28;20037;-75
2022/01/11 05:44:34;;;;;;;31.05;19.70;;;;;;;-144.47;100.00;61586.06;5040690;28;20037;-75
2022/01/11 05:47:00;;;;;;;31.88;20.52;;;;;;;-144.47;100.00;61586.06;5038732;28;20033;-75
2022/01/11 05:49:25;;;;;;;31.17;19.60;;;;;;;-144.47;100.00;61586.06;5040881;28;20029;-76
2022/01/11 05:51:51;;;;;;;30.17;19.33;;;;;;;-144.47;100.00;61586.06;5034439;28;20389;-76
2022/01/11 05:54:17;;;;;;;28.95;19.05;;;;;;;-144.47;100.00;61586.06;5040872;28;20021;-75
2022/01/11 05:56:43;;;;;;;27.77;18.88;;;;;;;-144.47;100.00;61586.06;5039270;28;20025;-75
2022/01/11 05:59:09;;;;;;;31.90;19.23;;;;;;;-144.47;100.00;61586.06;5043584;28;20040;-77
2022/01/11 06:01:35;;;;;;;31.35;19.70;;;;;;;-144.47;100.00;61586.06;5042470;28;20485;-76
2022/01/11 06:04:01;;;;;;;33.28;19.17;;;;;;;-144.47;100.00;61586.06;5033571;28;20049;-76
2022/01/11 06:06:26;;;;;;;31.70;18.65;;;;;;;-144.47;100.00;61586.06;5042422;28;20070;-76
2022/01/11 06:08:52;;;;;;;27.70;18.15;;;;;;;-144.47;100.00;61586.06;5029808;28;20486;-75
2022/01/11 06:11:18;;;;;;;24.33;18.10;;;;;;;-144.47;100.00;61586.06;5029295;28;20034;-74
2022/01/11 06:13:45;;;;;;;27.52;19.13;;;;;;;-144.47;100.00;61586.06;5040488;28;20029;-76
2022/01/11 06:16:10;;;;;;;32.25;18.63;;;;;;;-144.47;100.00;61586.06;5040652;28;20033;-77
2022/01/11 06:18:36;;;;;;;27.75;18.15;;;;;;;-144.47;100.00;61586.06;5038772;28;20094;-77
2022/01/11 06:21:17;;;;;;;31.33;19.17;;;;;;;-144.47;100.00;61586.06;5042032;28;20024;-82
2022/01/11 06:23:46;;;;;;;31.35;18.55;;;;;;;-144.47;100.00;61586.06;5038157;28;20091;-79
2022/01/11 06:26:13;;;;;;;30.58;17.92;;;;;;;-144.47;100.00;61586.06;5042227;28;20052;-78
2022/01/11 06:28:39;;;;;;;25.25;17.73;;;;;;;-144.47;100.00;61586.06;5029724;28;20034;-83
2022/01/11 06:31:06;;;;;;;29.42;19.25;;;;;;;-144.47;100.00;61586.06;5040451;28;20064;-83
2022/01/11 06:33:33;;;;;;;29.58;18.38;;;;;;;-144.47;100.00;61586.06;5036859;28;20037;-83
2022/01/11 06:35:59;;;;;;;29.50;18.48;;;;;;;-144.47;100.00;61586.06;5025873;28;20535;-83
2022/01/11 06:38:24;;;;;;;28.60;18.13;;;;;;;-144.47;100.00;61586.06;5038285;28;20037;-84
2022/01/11 06:40:52;;;;;;;29.85;18.63;;;;;;;-144.47;100.00;61586.06;5019247;28;20030;-83
2022/01/11 06:43:18;;;;;;;32.30;19.05;;;;;;;-144.47;100.00;61586.06;5037828;28;20036;-83
2022/01/11 06:45:43;;;;;;;33.53;19.65;;;;;;;-144.47;100.00;61586.06;5038495;28;20469;-83
2022/01/11 06:48:12;;;;;;;33.05;19.63;;;;;;;-144.47;100.00;61586.06;4326910;28;10000736;-83
2022/01/11 06:50:38;;;;;;;29.65;18.27;;;;;;;-144.47;100.00;61586.06;5037749;28;20033;-84
2022/01/11 06:53:04;;;;;;;30.42;20.10;;;;;;;-144.47;100.00;61586.06;5030500;28;20116;-83
2022/01/11 06:55:32;;;;;;;29.95;18.10;;;;;;;-144.47;100.00;61586.06;5045610;28;20128;-81
2022/01/11 06:57:58;;;;;;;32.00;19.45;;;;;;;-144.47;100.00;61586.06;5039280;28;20103;-80
2022/01/11 07:00:25;;;;;;;27.10;17.92;;;;;;;-144.47;100.00;61586.06;5041854;28;20035;-82
2022/01/11 07:02:56;;;;;;;27.20;18.38;;;;;;;-144.47;100.00;61586.06;5037464;28;20052;-82
2022/01/11 07:06:00;;;;;;;28.00;18.45;;;;;;;-144.47;100.00;61586.06;4330787;28;10001338;-83
2022/01/11 07:08:26;;;;;;;34.03;19.20;;;;;;;-144.47;100.00;61586.06;5047553;28;20029;-81
2022/01/11 07:10:54;;;;;;;29.60;19.27;;;;;;;-144.47;100.00;61586.06;5036135;28;20091;-82
2022/01/11 07:13:22;;;;;;;27.33;18.23;;;;;;;-144.47;100.00;61586.06;5028307;28;20033;-81
2022/01/11 07:15:51;;;;;;;28.60;17.52;;;;;;;-144.47;100.00;61586.06;5043558;28;20060;-81
2022/01/11 07:18:19;;;;;;;32.72;16.95;;;;;;;-144.47;100.00;61586.06;5044197;28;20029;-81
2022/01/11 07:20:46;;;;;;;27.23;17.35;;;;;;;-144.47;100.00;61586.06;5042130;28;21549;-81
2022/01/11 07:23:19;;;;;;;26.83;17.70;;;;;;;-144.47;100.00;61586.06;5042435;28;20025;-80
2022/01/11 07:25:44;;;;;;;30.40;18.20;;;;;;;-144.47;100.00;61586.06;5038049;28;20084;-78
2022/01/11 07:28:15;;;;;;;31.52;18.80;;;;;;;-144.47;100.00;61586.06;5041483;28;20047;-81
2022/01/11 07:30:42;;;;;;;26.85;18.08;;;;;;;-144.47;100.00;61586.06;5032645;28;20037;-80
2022/01/11 07:33:08;;;;;;;28.95;17.83;;;;;;;-144.47;100.00;61586.06;5033886;28;20041;-81
2022/01/11 07:35:35;;;;;;;27.80;18.08;;;;;;;-144.47;100.00;61586.06;5049784;28;20180;-81
2022/01/11 07:38:03;;;;;;;28.10;17.35;;;;;;;-144.47;100.00;61586.06;5045471;28;20036;-81
2022/01/11 07:40:29;;;;;;;29.92;17.95;;;;;;;-144.47;100.00;61586.06;5024032;28;20121;-79
2022/01/11 07:43:01;;;;;;;28.35;18.55;;;;;;;-144.47;100.00;61586.06;5044899;28;20386;-81
2022/01/11 07:45:42;;;;;;;30.40;18.60;;;;;;;-144.47;100.00;61586.06;5032420;28;20029;-82
2022/01/11 07:48:10;;;;;;;28.88;17.98;;;;;;;-144.47;100.00;61586.06;5018663;28;20163;-81
2022/01/11 07:50:44;;;;;;;30.50;18.35;;;;;;;-144.47;100.00;61586.06;5034891;28;20057;-78
2022/01/11 07:53:10;;;;;;;30.38;18.95;;;;;;;-144.47;100.00;61586.06;5040069;28;20436;-81
2022/01/11 07:55:42;;;;;;;23.63;16.60;;;;;;;-144.47;100.00;61586.06;5048099;28;20033;-79
2022/01/11 07:58:12;;;;;;;17.60;12.93;;;;;;;-144.47;100.00;61586.06;5032265;28;20112;-78
2022/01/11 08:00:40;;;;;;;31.00;17.13;;;;;;;-144.47;100.00;61586.06;5045917;28;20095;-84
2022/01/11 08:03:05;;;;;;;29.98;18.10;;;;;;;-144.47;100.00;61586.06;5046672;28;21216;-80
2022/01/11 08:05:53;;;;;;;35.33;17.48;;;;;;;-144.47;100.00;61586.06;5032546;28;20481;-82
2022/01/11 08:08:21;;;;;;;35.60;18.92;;;;;;;-144.47;100.00;61586.06;5030511;28;20029;-82
2022/01/11 08:10:47;;;;;;;29.90;18.42;;;;;;;-144.47;100.00;61586.06;5035555;28;20032;-84
2022/01/11 08:13:13;;;;;;;29.88;17.45;;;;;;;-144.47;100.00;61586.06;5032287;28;20112;-80
2022/01/11 08:15:41;;;;;;;28.35;17.65;;;;;;;-144.47;100.00;61586.06;5012814;28;20045;-79
2022/01/11 08:18:09;;;;;;;33.67;19.30;;;;;;;-144.47;100.00;61586.06;5026194;28;20029;-80
2022/01/11 08:20:35;;;;;;;28.48;16.95;;;;;;;-144.47;100.00;61586.06;5019015;28;20037;-78
2022/01/11 08:23:03;;;;;;;31.75;17.25;;;;;;;-144.47;100.00;61586.06;5023765;28;20033;-79
2022/01/11 08:25:30;;;;;;;29.98;17.90;;;;;;;-144.47;100.00;61586.06;5024601;28;20127;-80
2022/01/11 08:27:56;;;;;;;27.73;17.65;;;;;;;-144.47;100.00;61586.06;5026700;28;20399;-82
2022/01/11 08:30:22;;;;;;;27.30;16.70;;;;;;;-144.47;100.00;61586.06;5021548;28;20034;-80
2022/01/11 08:32:52;;;;;;;21.33;12.80;;;;;;;-144.47;100.00;61586.06;5022270;28;20033;-80
2022/01/11 08:35:18;;;;;;;22.88;16.13;;;;;;;-144.47;100.00;61586.06;5027954;28;20466;-79
2022/01/11 08:37:44;;;;;;;26.98;16.00;;;;;;;-144.47;100.00;61586.06;5028237;28;20025;-81
2022/01/11 08:40:13;;;;;;;28.27;15.70;;;;;;;-144.47;100.00;61586.06;5029436;28;20033;-84
2022/01/11 08:42:42;;;;;;;26.50;15.70;;;;;;;-144.47;100.00;61586.06;5028274;28;20060;-80
2022/01/11 08:45:08;;;;;;;25.73;16.42;;;;;;;-144.47;100.00;61586.06;5005056;28;20129;-82
2022/01/11 08:47:38;;;;;;;29.70;16.00;;;;;;;-144.47;100.00;61586.06;5009204;28;20092;-80
2022/01/11 08:50:06;;;;;;;32.95;18.13;;;;;;;-144.47;100.00;61586.06;5025025;28;20474;-78
2022/01/11 08:52:42;;;;;;;31.65;16.85;;;;;;;-144.47;100.00;61586.06;5009486;28;20034;-81
2022/01/11 08:55:11;;;;;;;28.77;17.40;;;;;;;-144.47;100.00;61586.06;5020648;28;20037;-80
2022/01/11 08:57:39;;;;;;;28.90;18.13;;;;;;;-144.47;100.00;61586.06;5030567;28;20064;-85
2022/01/11 09:00:16;;;;;;;30.35;16.98;;;;;;;-144.47;100.00;61586.06;5021210;28;20033;-78
2022/01/11 09:02:46;;;;;;;30.02;16.55;;;;;;;-144.47;100.00;61586.06;5024357;28;20030;-77
2022/01/11 09:05:14;;;;;;;21.70;15.80;;;;;;;-144.47;100.00;61586.06;5038854;28;20183;-80
2022/01/11 09:07:41;;;;;;;24.52;15.55;;;;;;;-144.47;100.00;61586.06;5027206;28;20041;-84
2022/01/11 09:10:08;;;;;;;24.88;15.05;;;;;;;-144.47;100.00;61586.06;5032598;28;20021;-92
2022/01/11 09:12:34;;;;;;;26.60;14.00;;;;;;;-144.47;100.00;61586.06;5025699;28;20041;-78
2022/01/11 09:15:02;;;;;;;18.50;13.27;;;;;;;-144.47;100.00;61586.06;5033596;28;20101;-81
2022/01/11 09:17:27;;;;;;;25.33;14.13;;;;;;;-144.47;100.00;61586.06;5036976;28;20447;-81
2022/01/11 09:19:54;;;;;;;21.65;13.73;;;;;;;-144.47;100.00;61586.06;5038490;28;20481;-83
2022/01/11 09:22:21;;;;;;;23.15;14.70;;;;;;;-144.47;100.00;61586.06;5032686;28;20048;-81
2022/01/11 09:24:47;;;;;;;21.60;14.70;;;;;;;-144.47;100.00;61586.06;5051960;28;20052;-80
2022/01/11 09:27:16;;;;;;;22.38;14.35;;;;;;;-144.47;100.00;61586.06;5020123;28;20049;-82
2022/01/11 09:29:45;;;;;;;19.27;12.48;;;;;;;-144.47;100.00;61586.06;5017011;28;20076;-81
2022/01/11 09:32:12;;;;;;;25.63;13.07;;;;;;;-144.47;100.00;61586.06;5021510;28;20486;-79
2022/01/11 09:34:39;;;;;;;22.27;14.52;;;;;;;-144.47;100.00;61586.06;5025344;28;20037;-81
2022/01/11 09:37:09;;;;;;;24.60;13.82;;;;;;;-144.47;100.00;61586.06;5014613;28;20036;-80
2022/01/11 09:39:36;;;;;;;20.80;14.10;;;;;;;-144.47;100.00;61586.06;5022506;28;20466;-78
2022/01/11 09:42:05;;;;;;;24.17;13.45;;;;;;;-144.47;100.00;61586.06;5014625;28;20033;-80
2022/01/11 09:44:34;;;;;;;22.20;14.15;;;;;;;-144.47;100.00;61586.06;5015280;28;20037;-78
2022/01/11 09:47:01;;;;;;;18.80;13.35;;;;;;;-144.47;100.00;61586.06;5042298;28;20040;-80
2022/01/11 09:49:28;;;;;;;19.70;13.82;;;;;;;-144.47;100.00;61586.06;5034906;28;20021;-80
2022/01/11 09:51:56;;;;;;;22.83;12.90;;;;;;;-144.47;100.00;61586.06;5025992;28;20098;-79
2022/01/11 09:54:23;;;;;;;17.10;12.07;;;;;;;-144.47;100.00;61586.06;5017667;28;20025;-83
2022/01/11 09:56:49;;;;;;;21.27;13.07;;;;;;;-144.47;100.00;61586.06;5025834;28;20379;-81
2022/01/11 09:59:18;;;;;;;19.27;13.52;;;;;;;-144.47;100.00;61586.06;5040911;28;20044;-80
2022/01/11 10:02:01;;;;;;;16.65;11.52;;;;;;;-144.47;100.00;61586.06;5040444;28;20045;-81
2022/01/11 10:04:59;;;;;;;17.45;12.10;;;;;;;-144.47;100.00;61586.06;5031148;28;20033;-81
2022/01/11 10:07:40;;;;;;;19.23;11.02;;;;;;;-144.47;100.00;61586.06;5039307;28;20045;-84
2022/01/11 10:10:16;;;;;;;15.48;11.45;;;;;;;-144.47;100.00;61586.06;5045598;28;20033;-86
2022/01/11 10:12:49;;;;;;;21.30;12.32;;;;;;;-144.47;100.00;61586.06;5043984;28;20108;-85
2022/01/11 10:15:26;;;;;;;18.10;11.77;;;;;;;-144.47;100.00;61586.06;5020468;28;20088;-86
2022/01/11 10:17:52;;;;;;;20.55;11.80;;;;;;;-144.47;100.00;61586.06;5035840;28;20037;-85
2022/01/11 10:20:25;;;;;;;16.25;11.90;;;;;;;-144.47;100.00;61586.06;5027863;28;20367;-81
2022/01/11 10:23:01;;;;;;;17.08;12.13;;;;;;;-144.47;100.00;61586.06;5038761;28;20440;-84
2022/01/11 10:25:48;;;;;;;22.52;12.45;;;;;;;-144.47;100.00;61586.06;5039026;28;20021;-88
2022/01/11 10:28:15;;;;;;;16.20;11.68;;;;;;;-144.47;100.00;61586.06;5034836;28;20053;-86
2022/01/11 10:30:46;;;;;;;25.33;12.13;;;;;;;-144.47;100.00;61586.06;5016429;28;20026;-87
2022/01/11 10:33:12;;;;;;;15.63;12.18;;;;;;;-144.47;100.00;61586.06;5042087;28;20434;-89
2022/01/11 10:35:46;;;;;;;24.48;11.45;;;;;;;-144.47;100.00;61586.06;5031351;28;20105;-86
2022/01/11 10:38:35;;;;;;;18.75;11.90;;;;;;;-144.47;100.00;61586.06;5025613;28;20030;-87
2022/01/11 10:41:40;;;;;;;24.48;12.20;;;;;;;-144.47;100.00;61586.06;5045269;28;20413;-86
2022/01/11 10:44:06;;;;;;;19.95;11.02;;;;;;;-144.47;100.00;61586.06;5045579;28;20037;-87
2022/01/11 10:46:45;;;;;;;15.65;9.57;;;;;;;-144.47;100.00;61586.06;5047397;28;20436;-88
2022/01/11 10:49:31;;;;;;;15.70;10.35;;;;;;;-144.47;100.00;61586.06;5041322;28;20041;-86
2022/01/11 10:52:53;;;;;;;16.02;10.07;;;;;;;-144.47;100.00;61586.06;5043210;28;20190;-86
2022/01/11 10:55:27;;;;;;;12.85;9.52;;;;;;;-144.47;100.00;61586.06;5027022;28;20092;-86
2022/01/11 10:57:56;;;;;;;16.00;10.65;;;;;;;-144.47;100.00;61586.06;5050765;28;20036;-89
2022/01/11 11:00:43;;;;;;;16.98;9.75;;;;;;;-144.47;100.00;61586.06;4344541;28;10000756;-90
2022/01/11 11:03:20;;;;;;;15.30;9.45;;;;;;;-144.47;100.00;61586.06;5034289;28;20049;-88
2022/01/11 11:06:13;;;;;;;13.60;9.68;;;;;;;-144.47;100.00;61586.06;5045505;28;20049;-89